sensor_id;sensor_type;location;lat;lon;timestamp;temperature;humidity
15394;DHT22;7795;47.986;11.868;2023-11-18T00:00:25;7.90;82.00
15394;DHT22;7795;47.986;11.868;2023-11-18T00:02:51;7.90;82.10
15394;DHT22;7795;47.986;11.868;2023-11-18T00:05:17;7.90;82.10
15394;DHT22;7795;47.986;11.868;2023-11-18T00:07:44;7.90;82.00
15394;DHT22;7795;47.986;11.868;2023-11-18T00:10:10;7.90;82.00
15394;DHT22;7795;47.986;11.868;2023-11-18T00:12:36;7.90;82.00
15394;DHT22;7795;47.986;11.868;2023-11-18T00:15:02;7.90;82.00
15394;DHT22;7795;47.986;11.868;2023-11-18T00:17:29;7.90;82.00
15394;DHT22;7795;47.986;11.868;2023-11-18T00:19:54;7.90;82.00
15394;DHT22;7795;47.986;11.868;2023-11-18T00:22:20;7.90;82.00
15394;DHT22;7795;47.986;11.868;2023-11-18T00:24:47;7.90;81.90
15394;DHT22;7795;47.986;11.868;2023-11-18T00:27:13;7.90;81.90
15394;DHT22;7795;47.986;11.868;2023-11-18T00:29:41;7.80;81.90
15394;DHT22;7795;47.986;11.868;2023-11-18T00:32:07;7.80;81.90
15394;DHT22;7795;47.986;11.868;2023-11-18T00:34:32;7.80;82.00
15394;DHT22;7795;47.986;11.868;2023-11-18T00:36:58;7.80;82.00
15394;DHT22;7795;47.986;11.868;2023-11-18T00:39:24;7.80;82.10
15394;DHT22;7795;47.986;11.868;2023-11-18T00:41:51;7.90;82.20
15394;DHT22;7795;47.986;11.868;2023-11-18T00:44:17;7.80;82.20
15394;DHT22;7795;47.986;11.868;2023-11-18T00:46:43;7.80;82.10
15394;DHT22;7795;47.986;11.868;2023-11-18T00:49:09;7.90;82.20
15394;DHT22;7795;47.986;11.868;2023-11-18T00:51:37;7.90;82.20
15394;DHT22;7795;47.986;11.868;2023-11-18T00:54:03;7.90;82.20
15394;DHT22;7795;47.986;11.868;2023-11-18T00:56:31;7.90;82.20
15394;DHT22;7795;47.986;11.868;2023-11-18T00:58:58;7.90;82.10
15394;DHT22;7795;47.986;11.868;2023-11-18T01:01:24;7.90;82.10
15394;DHT22;7795;47.986;11.868;2023-11-18T01:03:49;7.90;82.10
15394;DHT22;7795;47.986;11.868;2023-11-18T01:06:15;7.90;82.10
15394;DHT22;7795;47.986;11.868;2023-11-18T01:08:43;7.90;82.00
15394;DHT22;7795;47.986;11.868;2023-11-18T01:11:09;7.90;82.00
15394;DHT22;7795;47.986;11.868;2023-11-18T01:13:35;7.90;82.00
15394;DHT22;7795;47.986;11.868;2023-11-18T01:16:02;7.90;81.90
15394;DHT22;7795;47.986;11.868;2023-11-18T01:18:30;7.90;82.00
15394;DHT22;7795;47.986;11.868;2023-11-18T01:20:56;7.90;82.00
15394;DHT22;7795;47.986;11.868;2023-11-18T01:23:21;7.90;82.00
15394;DHT22;7795;47.986;11.868;2023-11-18T01:25:47;7.90;82.00
15394;DHT22;7795;47.986;11.868;2023-11-18T01:28:16;7.90;81.90
15394;DHT22;7795;47.986;11.868;2023-11-18T01:30:42;7.90;81.90
15394;DHT22;7795;47.986;11.868;2023-11-18T01:33:11;7.90;81.90
15394;DHT22;7795;47.986;11.868;2023-11-18T01:35:38;7.90;81.90
15394;DHT22;7795;47.986;11.868;2023-11-18T01:38:04;7.90;81.90
15394;DHT22;7795;47.986;11.868;2023-11-18T01:40:30;7.90;81.90
15394;DHT22;7795;47.986;11.868;2023-11-18T01:42:56;7.90;82.60
15394;DHT22;7795;47.986;11.868;2023-11-18T01:45:22;8.00;82.00
15394;DHT22;7795;47.986;11.868;2023-11-18T01:47:48;7.90;81.90
15394;DHT22;7795;47.986;11.868;2023-11-18T01:50:16;7.90;81.90
15394;DHT22;7795;47.986;11.868;2023-11-18T01:52:43;7.90;81.90
15394;DHT22;7795;47.986;11.868;2023-11-18T01:55:09;7.90;81.90
15394;DHT22;7795;47.986;11.868;2023-11-18T01:57:36;8.00;82.00
15394;DHT22;7795;47.986;11.868;2023-11-18T02:00:03;7.90;81.80
15394;DHT22;7795;47.986;11.868;2023-11-18T02:02:31;8.00;82.00
15394;DHT22;7795;47.986;11.868;2023-11-18T02:04:58;7.90;81.90
15394;DHT22;7795;47.986;11.868;2023-11-18T02:07:25;7.90;81.90
15394;DHT22;7795;47.986;11.868;2023-11-18T02:09:51;7.90;81.90
15394;DHT22;7795;47.986;11.868;2023-11-18T02:12:23;7.90;81.90
15394;DHT22;7795;47.986;11.868;2023-11-18T02:14:53;7.90;81.90
15394;DHT22;7795;47.986;11.868;2023-11-18T02:17:22;7.90;81.80
15394;DHT22;7795;47.986;11.868;2023-11-18T02:19:50;7.90;82.60
15394;DHT22;7795;47.986;11.868;2023-11-18T02:22:16;7.90;81.90
15394;DHT22;7795;47.986;11.868;2023-11-18T02:24:44;7.90;81.90
15394;DHT22;7795;47.986;11.868;2023-11-18T02:27:11;7.90;82.00
15394;DHT22;7795;47.986;11.868;2023-11-18T02:29:42;7.90;82.00
15394;DHT22;7795;47.986;11.868;2023-11-18T02:32:15;7.90;82.00
15394;DHT22;7795;47.986;11.868;2023-11-18T02:34:46;7.90;82.10
15394;DHT22;7795;47.986;11.868;2023-11-18T02:37:15;7.90;82.10
15394;DHT22;7795;47.986;11.868;2023-11-18T02:39:43;7.90;82.10
15394;DHT22;7795;47.986;11.868;2023-11-18T02:42:12;7.90;82.10
15394;DHT22;7795;47.986;11.868;2023-11-18T02:44:39;7.90;82.10
15394;DHT22;7795;47.986;11.868;2023-11-18T02:47:05;7.90;82.00
15394;DHT22;7795;47.986;11.868;2023-11-18T02:49:31;7.90;82.00
15394;DHT22;7795;47.986;11.868;2023-11-18T02:51:57;8.00;82.10
15394;DHT22;7795;47.986;11.868;2023-11-18T02:54:23;8.00;82.10
15394;DHT22;7795;47.986;11.868;2023-11-18T02:56:49;8.00;82.10
15394;DHT22;7795;47.986;11.868;2023-11-18T02:59:16;8.00;82.00
15394;DHT22;7795;47.986;11.868;2023-11-18T03:01:42;8.00;82.10
15394;DHT22;7795;47.986;11.868;2023-11-18T03:04:08;8.00;82.00
15394;DHT22;7795;47.986;11.868;2023-11-18T03:06:34;8.00;82.00
15394;DHT22;7795;47.986;11.868;2023-11-18T03:09:01;8.00;82.00
15394;DHT22;7795;47.986;11.868;2023-11-18T03:11:26;8.00;82.00
15394;DHT22;7795;47.986;11.868;2023-11-18T03:13:55;8.00;82.00
15394;DHT22;7795;47.986;11.868;2023-11-18T03:16:23;8.00;82.00
15394;DHT22;7795;47.986;11.868;2023-11-18T03:18:50;8.00;82.00
15394;DHT22;7795;47.986;11.868;2023-11-18T03:21:16;8.00;82.10
15394;DHT22;7795;47.986;11.868;2023-11-18T03:23:42;8.00;82.10
15394;DHT22;7795;47.986;11.868;2023-11-18T03:26:08;8.00;82.10
15394;DHT22;7795;47.986;11.868;2023-11-18T03:28:34;8.00;82.10
15394;DHT22;7795;47.986;11.868;2023-11-18T03:31:02;8.10;82.10
15394;DHT22;7795;47.986;11.868;2023-11-18T03:33:30;8.00;82.10
15394;DHT22;7795;47.986;11.868;2023-11-18T03:35:56;8.10;82.20
15394;DHT22;7795;47.986;11.868;2023-11-18T03:38:22;8.10;82.30
15394;DHT22;7795;47.986;11.868;2023-11-18T03:40:48;8.10;82.20
15394;DHT22;7795;47.986;11.868;2023-11-18T03:43:14;8.10;82.30
15394;DHT22;7795;47.986;11.868;2023-11-18T03:45:40;8.10;82.30
15394;DHT22;7795;47.986;11.868;2023-11-18T03:48:05;8.10;82.30
15394;DHT22;7795;47.986;11.868;2023-11-18T03:50:33;8.10;82.30
15394;DHT22;7795;47.986;11.868;2023-11-18T03:52:59;8.20;82.20
15394;DHT22;7795;47.986;11.868;2023-11-18T03:55:25;8.20;82.20
15394;DHT22;7795;47.986;11.868;2023-11-18T03:57:53;8.20;82.20
15394;DHT22;7795;47.986;11.868;2023-11-18T04:00:20;8.20;82.10
15394;DHT22;7795;47.986;11.868;2023-11-18T04:02:45;8.20;82.10
15394;DHT22;7795;47.986;11.868;2023-11-18T04:05:12;8.20;82.10
15394;DHT22;7795;47.986;11.868;2023-11-18T04:07:39;8.20;82.00
15394;DHT22;7795;47.986;11.868;2023-11-18T04:10:08;8.20;82.00
15394;DHT22;7795;47.986;11.868;2023-11-18T04:12:36;8.20;82.00
15394;DHT22;7795;47.986;11.868;2023-11-18T04:15:03;8.20;82.00
15394;DHT22;7795;47.986;11.868;2023-11-18T04:17:30;8.20;82.00
15394;DHT22;7795;47.986;11.868;2023-11-18T04:19:56;8.20;82.00
15394;DHT22;7795;47.986;11.868;2023-11-18T04:22:21;8.20;82.00
15394;DHT22;7795;47.986;11.868;2023-11-18T04:24:48;8.20;82.00
15394;DHT22;7795;47.986;11.868;2023-11-18T04:27:15;8.20;82.00
15394;DHT22;7795;47.986;11.868;2023-11-18T04:29:41;8.20;81.90
15394;DHT22;7795;47.986;11.868;2023-11-18T04:32:07;8.20;82.00
15394;DHT22;7795;47.986;11.868;2023-11-18T04:34:36;8.20;82.00
15394;DHT22;7795;47.986;11.868;2023-11-18T04:37:02;8.20;82.00
15394;DHT22;7795;47.986;11.868;2023-11-18T04:39:28;8.20;82.00
15394;DHT22;7795;47.986;11.868;2023-11-18T04:41:57;8.20;82.10
15394;DHT22;7795;47.986;11.868;2023-11-18T04:44:22;8.20;82.10
15394;DHT22;7795;47.986;11.868;2023-11-18T04:46:48;8.20;82.10
15394;DHT22;7795;47.986;11.868;2023-11-18T04:49:14;8.20;82.70
15394;DHT22;7795;47.986;11.868;2023-11-18T04:51:40;8.20;81.90
15394;DHT22;7795;47.986;11.868;2023-11-18T04:54:05;8.20;81.90
15394;DHT22;7795;47.986;11.868;2023-11-18T04:56:33;8.20;81.80
15394;DHT22;7795;47.986;11.868;2023-11-18T04:59:02;8.20;81.80
15394;DHT22;7795;47.986;11.868;2023-11-18T05:01:28;8.20;81.80
15394;DHT22;7795;47.986;11.868;2023-11-18T05:03:53;8.20;81.80
15394;DHT22;7795;47.986;11.868;2023-11-18T05:06:20;8.20;81.80
15394;DHT22;7795;47.986;11.868;2023-11-18T05:08:45;8.20;81.80
15394;DHT22;7795;47.986;11.868;2023-11-18T05:11:11;8.20;81.80
15394;DHT22;7795;47.986;11.868;2023-11-18T05:13:38;8.20;81.90
15394;DHT22;7795;47.986;11.868;2023-11-18T05:16:07;8.20;81.90
15394;DHT22;7795;47.986;11.868;2023-11-18T05:18:33;8.20;82.00
15394;DHT22;7795;47.986;11.868;2023-11-18T05:21:02;8.10;81.90
15394;DHT22;7795;47.986;11.868;2023-11-18T05:23:28;8.10;81.90
15394;DHT22;7795;47.986;11.868;2023-11-18T05:25:57;8.10;82.00
15394;DHT22;7795;47.986;11.868;2023-11-18T05:28:23;8.10;82.00
15394;DHT22;7795;47.986;11.868;2023-11-18T05:30:50;8.10;82.00
15394;DHT22;7795;47.986;11.868;2023-11-18T05:33:18;8.10;82.10
15394;DHT22;7795;47.986;11.868;2023-11-18T05:35:44;8.10;82.10
15394;DHT22;7795;47.986;11.868;2023-11-18T05:38:15;8.10;82.10
15394;DHT22;7795;47.986;11.868;2023-11-18T05:40:44;8.10;82.10
15394;DHT22;7795;47.986;11.868;2023-11-18T05:43:19;8.10;82.20
15394;DHT22;7795;47.986;11.868;2023-11-18T05:45:46;8.20;82.20
15394;DHT22;7795;47.986;11.868;2023-11-18T05:48:33;8.20;82.10
15394;DHT22;7795;47.986;11.868;2023-11-18T05:50:59;8.20;82.10
15394;DHT22;7795;47.986;11.868;2023-11-18T05:53:25;8.20;82.10
15394;DHT22;7795;47.986;11.868;2023-11-18T05:55:50;8.20;82.00
15394;DHT22;7795;47.986;11.868;2023-11-18T05:58:16;8.20;82.00
15394;DHT22;7795;47.986;11.868;2023-11-18T06:00:42;8.20;82.00
15394;DHT22;7795;47.986;11.868;2023-11-18T06:03:07;8.20;82.00
15394;DHT22;7795;47.986;11.868;2023-11-18T06:05:34;8.20;82.00
15394;DHT22;7795;47.986;11.868;2023-11-18T06:08:00;8.20;82.00
15394;DHT22;7795;47.986;11.868;2023-11-18T06:10:26;8.20;82.00
15394;DHT22;7795;47.986;11.868;2023-11-18T06:12:52;8.20;82.00
15394;DHT22;7795;47.986;11.868;2023-11-18T06:15:18;8.20;82.00
15394;DHT22;7795;47.986;11.868;2023-11-18T06:17:44;8.20;82.00
15394;DHT22;7795;47.986;11.868;2023-11-18T06:20:10;8.20;81.90
15394;DHT22;7795;47.986;11.868;2023-11-18T06:22:37;8.20;81.90
15394;DHT22;7795;47.986;11.868;2023-11-18T06:25:04;8.20;81.80
15394;DHT22;7795;47.986;11.868;2023-11-18T06:27:33;8.20;81.80
15394;DHT22;7795;47.986;11.868;2023-11-18T06:29:58;8.20;81.80
15394;DHT22;7795;47.986;11.868;2023-11-18T06:32:24;8.20;81.80
15394;DHT22;7795;47.986;11.868;2023-11-18T06:34:51;8.20;81.80
15394;DHT22;7795;47.986;11.868;2023-11-18T06:37:17;8.30;82.60
15394;DHT22;7795;47.986;11.868;2023-11-18T06:39:44;8.20;81.70
15394;DHT22;7795;47.986;11.868;2023-11-18T06:42:13;8.20;81.70
15394;DHT22;7795;47.986;11.868;2023-11-18T06:44:39;8.20;81.70
15394;DHT22;7795;47.986;11.868;2023-11-18T06:47:05;8.20;81.70
15394;DHT22;7795;47.986;11.868;2023-11-18T06:49:32;8.20;81.80
15394;DHT22;7795;47.986;11.868;2023-11-18T06:52:00;8.20;81.80
15394;DHT22;7795;47.986;11.868;2023-11-18T06:54:29;8.20;81.80
15394;DHT22;7795;47.986;11.868;2023-11-18T06:56:56;8.20;81.80
15394;DHT22;7795;47.986;11.868;2023-11-18T06:59:22;8.20;81.80
15394;DHT22;7795;47.986;11.868;2023-11-18T07:01:47;8.20;81.90
15394;DHT22;7795;47.986;11.868;2023-11-18T07:04:14;8.20;82.00
15394;DHT22;7795;47.986;11.868;2023-11-18T07:06:40;8.30;82.00
15394;DHT22;7795;47.986;11.868;2023-11-18T07:09:07;8.30;82.00
15394;DHT22;7795;47.986;11.868;2023-11-18T07:11:42;8.30;82.00
15394;DHT22;7795;47.986;11.868;2023-11-18T07:14:11;8.30;81.90
15394;DHT22;7795;47.986;11.868;2023-11-18T07:16:38;8.30;81.90
15394;DHT22;7795;47.986;11.868;2023-11-18T07:19:04;8.30;81.90
15394;DHT22;7795;47.986;11.868;2023-11-18T07:21:29;8.40;82.00
15394;DHT22;7795;47.986;11.868;2023-11-18T07:23:55;8.40;82.00
15394;DHT22;7795;47.986;11.868;2023-11-18T07:26:22;8.40;81.90
15394;DHT22;7795;47.986;11.868;2023-11-18T07:28:49;8.40;81.90
15394;DHT22;7795;47.986;11.868;2023-11-18T07:31:16;8.40;81.80
15394;DHT22;7795;47.986;11.868;2023-11-18T07:33:44;8.40;81.80
15394;DHT22;7795;47.986;11.868;2023-11-18T07:36:14;8.40;81.80
15394;DHT22;7795;47.986;11.868;2023-11-18T07:38:41;8.50;81.80
15394;DHT22;7795;47.986;11.868;2023-11-18T07:41:07;8.50;81.90
15394;DHT22;7795;47.986;11.868;2023-11-18T07:43:34;8.50;81.90
15394;DHT22;7795;47.986;11.868;2023-11-18T07:46:02;8.50;82.00
15394;DHT22;7795;47.986;11.868;2023-11-18T07:48:29;8.60;82.00
15394;DHT22;7795;47.986;11.868;2023-11-18T07:50:56;8.60;82.00
15394;DHT22;7795;47.986;11.868;2023-11-18T07:53:22;8.60;82.00
15394;DHT22;7795;47.986;11.868;2023-11-18T07:55:48;8.60;82.00
15394;DHT22;7795;47.986;11.868;2023-11-18T07:58:15;8.70;82.00
15394;DHT22;7795;47.986;11.868;2023-11-18T08:00:41;8.70;81.80
15394;DHT22;7795;47.986;11.868;2023-11-18T08:03:16;8.70;81.80
15394;DHT22;7795;47.986;11.868;2023-11-18T08:05:44;8.80;81.80
15394;DHT22;7795;47.986;11.868;2023-11-18T08:08:10;8.80;81.80
15394;DHT22;7795;47.986;11.868;2023-11-18T08:10:38;8.80;81.80
15394;DHT22;7795;47.986;11.868;2023-11-18T08:13:04;8.80;81.70
15394;DHT22;7795;47.986;11.868;2023-11-18T08:15:30;8.80;82.40
15394;DHT22;7795;47.986;11.868;2023-11-18T08:17:56;8.90;81.70
15394;DHT22;7795;47.986;11.868;2023-11-18T08:20:22;8.90;82.30
15394;DHT22;7795;47.986;11.868;2023-11-18T08:22:52;8.90;81.70
15394;DHT22;7795;47.986;11.868;2023-11-18T08:25:18;9.00;81.70
15394;DHT22;7795;47.986;11.868;2023-11-18T08:27:44;9.00;81.70
15394;DHT22;7795;47.986;11.868;2023-11-18T08:30:13;9.00;81.70
15394;DHT22;7795;47.986;11.868;2023-11-18T08:32:41;9.00;81.60
15394;DHT22;7795;47.986;11.868;2023-11-18T08:35:09;9.10;81.50
15394;DHT22;7795;47.986;11.868;2023-11-18T08:37:36;9.10;81.50
15394;DHT22;7795;47.986;11.868;2023-11-18T08:40:04;9.10;81.50
15394;DHT22;7795;47.986;11.868;2023-11-18T08:42:41;9.20;81.50
15394;DHT22;7795;47.986;11.868;2023-11-18T08:45:08;9.20;81.50
15394;DHT22;7795;47.986;11.868;2023-11-18T08:47:33;9.20;81.40
15394;DHT22;7795;47.986;11.868;2023-11-18T08:49:59;9.30;82.20
15394;DHT22;7795;47.986;11.868;2023-11-18T08:52:37;9.30;81.30
15394;DHT22;7795;47.986;11.868;2023-11-18T08:55:04;9.30;81.20
15394;DHT22;7795;47.986;11.868;2023-11-18T08:57:47;9.40;81.10
15394;DHT22;7795;47.986;11.868;2023-11-18T09:00:26;9.40;81.00
15394;DHT22;7795;47.986;11.868;2023-11-18T09:03:10;9.40;81.00
15394;DHT22;7795;47.986;11.868;2023-11-18T09:05:43;9.40;81.00
15394;DHT22;7795;47.986;11.868;2023-11-18T09:08:22;9.50;81.80
15394;DHT22;7795;47.986;11.868;2023-11-18T09:10:50;9.50;81.00
15394;DHT22;7795;47.986;11.868;2023-11-18T09:13:20;9.50;81.00
15394;DHT22;7795;47.986;11.868;2023-11-18T09:15:46;9.50;81.00
15394;DHT22;7795;47.986;11.868;2023-11-18T09:18:12;9.50;81.00
15394;DHT22;7795;47.986;11.868;2023-11-18T09:20:38;9.60;81.00
15394;DHT22;7795;47.986;11.868;2023-11-18T09:23:05;9.60;80.90
15394;DHT22;7795;47.986;11.868;2023-11-18T09:25:32;9.60;80.80
15394;DHT22;7795;47.986;11.868;2023-11-18T09:27:59;9.70;80.80
15394;DHT22;7795;47.986;11.868;2023-11-18T09:30:26;9.70;80.80
15394;DHT22;7795;47.986;11.868;2023-11-18T09:32:51;9.80;80.80
15394;DHT22;7795;47.986;11.868;2023-11-18T09:35:17;9.80;80.70
15394;DHT22;7795;47.986;11.868;2023-11-18T09:37:45;9.90;80.50
15394;DHT22;7795;47.986;11.868;2023-11-18T09:40:14;9.90;80.40
15394;DHT22;7795;47.986;11.868;2023-11-18T09:42:40;9.90;80.40
15394;DHT22;7795;47.986;11.868;2023-11-18T09:45:08;10.00;80.50
15394;DHT22;7795;47.986;11.868;2023-11-18T09:47:42;10.10;80.30
15394;DHT22;7795;47.986;11.868;2023-11-18T09:50:14;10.10;80.10
15394;DHT22;7795;47.986;11.868;2023-11-18T09:52:47;10.20;80.10
15394;DHT22;7795;47.986;11.868;2023-11-18T09:55:24;10.20;80.00
15394;DHT22;7795;47.986;11.868;2023-11-18T09:57:55;10.30;79.80
15394;DHT22;7795;47.986;11.868;2023-11-18T10:00:27;10.30;79.40
15394;DHT22;7795;47.986;11.868;2023-11-18T10:02:58;10.30;79.20
15394;DHT22;7795;47.986;11.868;2023-11-18T10:05:27;10.40;79.20
15394;DHT22;7795;47.986;11.868;2023-11-18T10:07:53;10.40;79.10
15394;DHT22;7795;47.986;11.868;2023-11-18T10:10:20;10.40;78.90
15394;DHT22;7795;47.986;11.868;2023-11-18T10:12:51;10.50;78.80
15394;DHT22;7795;47.986;11.868;2023-11-18T10:15:24;10.50;78.80
15394;DHT22;7795;47.986;11.868;2023-11-18T10:17:52;10.50;78.70
15394;DHT22;7795;47.986;11.868;2023-11-18T10:20:22;10.50;78.50
15394;DHT22;7795;47.986;11.868;2023-11-18T10:23:06;10.60;79.10
15394;DHT22;7795;47.986;11.868;2023-11-18T10:25:35;10.60;77.60
15394;DHT22;7795;47.986;11.868;2023-11-18T10:28:06;10.60;78.10
15394;DHT22;7795;47.986;11.868;2023-11-18T10:30:32;10.60;77.90
15394;DHT22;7795;47.986;11.868;2023-11-18T10:33:09;10.60;78.00
15394;DHT22;7795;47.986;11.868;2023-11-18T10:35:37;10.70;77.90
15394;DHT22;7795;47.986;11.868;2023-11-18T10:38:02;10.70;77.70
15394;DHT22;7795;47.986;11.868;2023-11-18T10:40:32;10.70;77.70
15394;DHT22;7795;47.986;11.868;2023-11-18T10:43:00;10.70;77.40
15394;DHT22;7795;47.986;11.868;2023-11-18T10:45:26;10.80;77.10
15394;DHT22;7795;47.986;11.868;2023-11-18T10:47:53;10.80;77.10
15394;DHT22;7795;47.986;11.868;2023-11-18T10:50:22;10.80;77.10
15394;DHT22;7795;47.986;11.868;2023-11-18T10:52:48;10.80;77.00
15394;DHT22;7795;47.986;11.868;2023-11-18T10:55:14;10.80;76.90
15394;DHT22;7795;47.986;11.868;2023-11-18T10:57:45;10.90;77.00
15394;DHT22;7795;47.986;11.868;2023-11-18T11:00:12;10.90;76.90
15394;DHT22;7795;47.986;11.868;2023-11-18T11:02:44;10.90;76.70
15394;DHT22;7795;47.986;11.868;2023-11-18T11:05:12;11.00;76.60
15394;DHT22;7795;47.986;11.868;2023-11-18T11:07:54;11.00;76.40
15394;DHT22;7795;47.986;11.868;2023-11-18T11:10:20;11.00;76.20
15394;DHT22;7795;47.986;11.868;2023-11-18T11:12:55;11.10;76.10
15394;DHT22;7795;47.986;11.868;2023-11-18T11:15:25;11.10;75.80
15394;DHT22;7795;47.986;11.868;2023-11-18T11:17:54;11.20;75.60
15394;DHT22;7795;47.986;11.868;2023-11-18T11:20:31;11.20;75.60
15394;DHT22;7795;47.986;11.868;2023-11-18T11:23:12;11.30;75.40
15394;DHT22;7795;47.986;11.868;2023-11-18T11:25:46;11.30;74.60
15394;DHT22;7795;47.986;11.868;2023-11-18T11:28:20;11.30;75.10
15394;DHT22;7795;47.986;11.868;2023-11-18T11:30:55;11.40;74.90
15394;DHT22;7795;47.986;11.868;2023-11-18T11:33:25;11.50;74.90
15394;DHT22;7795;47.986;11.868;2023-11-18T11:35:56;11.60;75.10
15394;DHT22;7795;47.986;11.868;2023-11-18T11:38:27;11.60;75.10
15394;DHT22;7795;47.986;11.868;2023-11-18T11:40:54;11.70;74.70
15394;DHT22;7795;47.986;11.868;2023-11-18T11:43:21;11.80;74.60
15394;DHT22;7795;47.986;11.868;2023-11-18T11:45:48;11.80;74.60
15394;DHT22;7795;47.986;11.868;2023-11-18T11:48:15;11.90;75.20
15394;DHT22;7795;47.986;11.868;2023-11-18T11:51:09;12.00;75.10
15394;DHT22;7795;47.986;11.868;2023-11-18T11:53:51;12.10;72.70
15394;DHT22;7795;47.986;11.868;2023-11-18T11:56:19;12.20;73.20
15394;DHT22;7795;47.986;11.868;2023-11-18T11:58:49;12.20;73.20
15394;DHT22;7795;47.986;11.868;2023-11-18T12:01:24;12.30;73.20
15394;DHT22;7795;47.986;11.868;2023-11-18T12:03:52;12.30;72.90
15394;DHT22;7795;47.986;11.868;2023-11-18T12:06:23;12.40;72.60
15394;DHT22;7795;47.986;11.868;2023-11-18T12:08:51;12.40;72.30
15394;DHT22;7795;47.986;11.868;2023-11-18T12:11:17;12.40;71.90
15394;DHT22;7795;47.986;11.868;2023-11-18T12:14:01;12.40;72.00
15394;DHT22;7795;47.986;11.868;2023-11-18T12:16:59;12.40;70.90
15394;DHT22;7795;47.986;11.868;2023-11-18T12:19:41;12.40;70.90
15394;DHT22;7795;47.986;11.868;2023-11-18T12:22:14;12.40;71.80
15394;DHT22;7795;47.986;11.868;2023-11-18T12:27:58;12.40;70.10
15394;DHT22;7795;47.986;11.868;2023-11-18T12:30:44;12.40;71.40
15394;DHT22;7795;47.986;11.868;2023-11-18T12:33:23;12.40;69.80
15394;DHT22;7795;47.986;11.868;2023-11-18T12:42:08;12.40;69.70
15394;DHT22;7795;47.986;11.868;2023-11-18T12:45:03;12.40;70.70
15394;DHT22;7795;47.986;11.868;2023-11-18T12:47:42;12.40;69.90
15394;DHT22;7795;47.986;11.868;2023-11-18T12:50:11;12.40;70.60
15394;DHT22;7795;47.986;11.868;2023-11-18T12:52:50;12.40;70.70
15394;DHT22;7795;47.986;11.868;2023-11-18T12:55:17;12.40;70.60
15394;DHT22;7795;47.986;11.868;2023-11-18T12:57:47;12.40;70.50
15394;DHT22;7795;47.986;11.868;2023-11-18T13:00:14;12.40;70.10
15394;DHT22;7795;47.986;11.868;2023-11-18T13:02:44;12.40;70.30
15394;DHT22;7795;47.986;11.868;2023-11-18T13:05:10;12.40;70.30
15394;DHT22;7795;47.986;11.868;2023-11-18T13:07:36;12.40;70.30
15394;DHT22;7795;47.986;11.868;2023-11-18T13:10:03;12.40;70.30
15394;DHT22;7795;47.986;11.868;2023-11-18T13:12:30;12.40;70.30
15394;DHT22;7795;47.986;11.868;2023-11-18T13:14:57;12.40;70.30
15394;DHT22;7795;47.986;11.868;2023-11-18T13:17:23;12.40;70.20
15394;DHT22;7795;47.986;11.868;2023-11-18T13:19:49;12.40;70.20
15394;DHT22;7795;47.986;11.868;2023-11-18T13:22:19;12.40;70.00
15394;DHT22;7795;47.986;11.868;2023-11-18T13:24:45;12.40;70.20
15394;DHT22;7795;47.986;11.868;2023-11-18T13:27:14;12.40;70.20
15394;DHT22;7795;47.986;11.868;2023-11-18T13:29:44;12.40;69.90
15394;DHT22;7795;47.986;11.868;2023-11-18T13:32:17;12.40;69.90
15394;DHT22;7795;47.986;11.868;2023-11-18T13:34:43;12.40;70.00
15394;DHT22;7795;47.986;11.868;2023-11-18T13:37:10;12.40;70.00
15394;DHT22;7795;47.986;11.868;2023-11-18T13:39:38;12.40;70.00
15394;DHT22;7795;47.986;11.868;2023-11-18T13:42:18;12.30;70.70
15394;DHT22;7795;47.986;11.868;2023-11-18T13:44:44;12.30;69.30
15394;DHT22;7795;47.986;11.868;2023-11-18T13:47:11;12.30;70.10
15394;DHT22;7795;47.986;11.868;2023-11-18T13:49:39;12.30;70.10
15394;DHT22;7795;47.986;11.868;2023-11-18T13:52:08;12.20;69.90
15394;DHT22;7795;47.986;11.868;2023-11-18T13:54:36;12.20;70.00
15394;DHT22;7795;47.986;11.868;2023-11-18T13:57:03;12.20;70.00
15394;DHT22;7795;47.986;11.868;2023-11-18T13:59:29;12.10;69.80
15394;DHT22;7795;47.986;11.868;2023-11-18T14:01:57;12.10;69.80
15394;DHT22;7795;47.986;11.868;2023-11-18T14:04:23;12.10;69.90
15394;DHT22;7795;47.986;11.868;2023-11-18T14:06:52;12.10;70.00
15394;DHT22;7795;47.986;11.868;2023-11-18T14:09:19;12.00;69.90
15394;DHT22;7795;47.986;11.868;2023-11-18T14:11:46;12.00;70.00
15394;DHT22;7795;47.986;11.868;2023-11-18T14:14:12;12.00;70.20
15394;DHT22;7795;47.986;11.868;2023-11-18T14:16:38;11.90;70.20
15394;DHT22;7795;47.986;11.868;2023-11-18T14:19:05;11.90;70.30
15394;DHT22;7795;47.986;11.868;2023-11-18T14:21:31;11.90;70.40
15394;DHT22;7795;47.986;11.868;2023-11-18T14:23:58;11.90;70.50
15394;DHT22;7795;47.986;11.868;2023-11-18T14:26:28;11.80;70.40
15394;DHT22;7795;47.986;11.868;2023-11-18T14:28:56;11.80;70.60
15394;DHT22;7795;47.986;11.868;2023-11-18T14:31:22;11.80;70.90
15394;DHT22;7795;47.986;11.868;2023-11-18T14:33:50;11.80;71.10
15394;DHT22;7795;47.986;11.868;2023-11-18T14:36:17;11.70;71.20
15394;DHT22;7795;47.986;11.868;2023-11-18T14:38:42;11.70;71.40
15394;DHT22;7795;47.986;11.868;2023-11-18T14:41:10;11.70;71.60
15394;DHT22;7795;47.986;11.868;2023-11-18T14:43:35;11.70;71.70
15394;DHT22;7795;47.986;11.868;2023-11-18T14:46:01;11.70;71.80
15394;DHT22;7795;47.986;11.868;2023-11-18T14:48:29;11.60;71.80
15394;DHT22;7795;47.986;11.868;2023-11-18T14:50:55;11.60;71.90
15394;DHT22;7795;47.986;11.868;2023-11-18T14:53:22;11.60;72.00
15394;DHT22;7795;47.986;11.868;2023-11-18T14:55:48;11.60;72.00
15394;DHT22;7795;47.986;11.868;2023-11-18T14:58:15;11.60;72.10
15394;DHT22;7795;47.986;11.868;2023-11-18T15:00:41;11.50;72.00
15394;DHT22;7795;47.986;11.868;2023-11-18T15:03:08;11.50;72.90
15394;DHT22;7795;47.986;11.868;2023-11-18T15:05:34;11.40;72.10
15394;DHT22;7795;47.986;11.868;2023-11-18T15:08:00;11.40;72.20
15394;DHT22;7795;47.986;11.868;2023-11-18T15:10:27;11.30;72.30
15394;DHT22;7795;47.986;11.868;2023-11-18T15:12:54;11.30;72.50
15394;DHT22;7795;47.986;11.868;2023-11-18T15:15:22;11.20;72.60
15394;DHT22;7795;47.986;11.868;2023-11-18T15:17:48;11.20;72.80
15394;DHT22;7795;47.986;11.868;2023-11-18T15:20:14;11.10;72.80
15394;DHT22;7795;47.986;11.868;2023-11-18T15:22:41;11.10;72.80
15394;DHT22;7795;47.986;11.868;2023-11-18T15:25:08;11.00;72.90
15394;DHT22;7795;47.986;11.868;2023-11-18T15:27:38;10.90;73.00
15394;DHT22;7795;47.986;11.868;2023-11-18T15:30:05;10.80;73.10
15394;DHT22;7795;47.986;11.868;2023-11-18T15:32:32;10.80;73.30
15394;DHT22;7795;47.986;11.868;2023-11-18T15:34:58;10.70;73.30
15394;DHT22;7795;47.986;11.868;2023-11-18T15:37:24;10.70;73.40
15394;DHT22;7795;47.986;11.868;2023-11-18T15:39:50;10.60;73.50
15394;DHT22;7795;47.986;11.868;2023-11-18T15:42:16;10.60;73.50
15394;DHT22;7795;47.986;11.868;2023-11-18T15:44:42;10.50;73.40
15394;DHT22;7795;47.986;11.868;2023-11-18T15:47:08;10.40;73.50
15394;DHT22;7795;47.986;11.868;2023-11-18T15:49:36;10.40;73.60
15394;DHT22;7795;47.986;11.868;2023-11-18T15:52:02;10.30;73.70
15394;DHT22;7795;47.986;11.868;2023-11-18T15:54:28;10.30;73.80